Time;durP1;ratioP1;P1;durP2;ratioP2;P2;SDS_P1;SDS_P2;PMS_P1;PMS_P2;Temp;Humidity;BMP_temperature;BMP_pressure;BME280_temperature;BME280_humidity;BME280_pressure;Samples;Min_cycle;Max_cycle;Signal;HPM_P1;HPM_P2
2022/06/28 00:01:29;;;;;;;;;;;;;;;-140.72;100.00;52618.13;5059212;28;20290;-67
2022/06/28 00:03:54;;;;;;;;;;;;;;;-140.72;100.00;52620.16;5048586;28;19921;-67
2022/06/28 00:06:19;;;;;;;;;;;;;;;-140.72;100.00;52605.94;5052957;28;20011;-68
2022/06/28 00:08:44;;;;;;;;;;;;;;;-140.72;100.00;52581.59;5052579;28;19932;-67
2022/06/28 00:11:10;;;;;;;;;;;;;;;-140.72;100.00;52616.09;5046098;28;19916;-66
2022/06/28 00:13:36;;;;;;;;;;;;;;;-140.72;100.00;52618.13;5041351;28;19923;-67
2022/06/28 00:16:05;;;;;;;;;;;;;;;-140.72;100.00;52571.47;5040529;28;20304;-67
2022/06/28 00:18:31;;;;;;;;;;;;;;;-140.72;100.00;52569.44;5049109;28;19917;-67
2022/06/28 00:20:57;;;;;;;;;;;;;;;-140.72;100.00;52585.66;5047905;28;19928;-67
2022/06/28 00:23:23;;;;;;;;;;;;;;;-140.72;100.00;52616.09;5050342;28;19917;-67
2022/06/28 00:25:48;;;;;;;;;;;;;;;-140.72;100.00;52605.94;5047422;28;19957;-68
2022/06/28 00:28:14;;;;;;;;;;;;;;;-140.72;100.00;52593.78;5048851;28;19928;-67
2022/06/28 00:30:39;;;;;;;;;;;;;;;-140.72;100.00;52569.44;5046167;28;20279;-67
2022/06/28 00:33:04;;;;;;;;;;;;;;;-140.72;100.00;52567.41;5047565;28;19917;-67
2022/06/28 00:35:29;;;;;;;;;;;;;;;-140.72;100.00;52599.88;5049749;28;19916;-66
2022/06/28 00:37:55;;;;;;;;;;;;;;;-140.72;100.00;52595.81;5056058;28;19948;-67
2022/06/28 00:40:20;;;;;;;;;;;;;;;-140.72;100.00;52601.91;5050414;28;19929;-67
2022/06/28 00:42:45;;;;;;;;;;;;;;;-140.72;100.00;52581.59;5053640;28;19928;-67
2022/06/28 00:45:11;;;;;;;;;;;;;;;-140.72;100.00;52595.81;5060006;28;19975;-67
2022/06/28 00:47:37;;;;;;;;;;;;;;;-140.72;100.00;52646.53;5051484;28;19932;-67
2022/06/28 00:50:02;;;;;;;;;;;;;;;-140.72;100.00;52597.84;5053470;28;19940;-67
2022/06/28 00:52:28;;;;;;;;;;;;;;;-140.72;100.00;52601.91;5056331;28;19956;-67
2022/06/28 00:54:53;;;;;;;;;;;;;;;-140.72;100.00;52612.03;5053976;28;19916;-67
2022/06/28 00:57:18;;;;;;;;;;;;;;;-140.72;100.00;52626.25;5051392;28;19925;-68
2022/06/28 00:59:44;;;;;;;;;;;;;;;-140.72;100.00;52601.91;5047853;28;19917;-66
2022/06/28 01:02:09;;;;;;;;;;;;;;;-140.72;100.00;52636.38;5044193;28;19963;-67
2022/06/28 01:04:35;;;;;;;;;;;;;;;-140.72;100.00;52626.25;5049641;28;19944;-67
2022/06/28 01:07:00;;;;;;;;;;;;;;;-140.72;100.00;52618.13;5048469;28;19981;-67
2022/06/28 01:09:25;;;;;;;;;;;;;;;-140.72;100.00;52559.28;5044906;28;19929;-68
2022/06/28 01:11:51;;;;;;;;;;;;;;;-140.72;100.00;52593.78;5051829;28;19925;-67
2022/06/28 01:14:16;;;;;;;;;;;;;;;-140.72;100.00;52644.50;5051420;28;19921;-67
2022/06/28 01:16:41;;;;;;;;;;;;;;;-140.72;100.00;52622.19;5045571;28;19925;-67
2022/06/28 01:19:07;;;;;;;;;;;;;;;-140.72;100.00;52634.38;5045229;28;19964;-67
2022/06/28 01:21:33;;;;;;;;;;;;;;;-140.72;100.00;52618.13;5046948;28;19917;-67
2022/06/28 01:23:59;;;;;;;;;;;;;;;-140.72;100.00;52618.13;5050395;28;19917;-67
2022/06/28 01:26:25;;;;;;;;;;;;;;;-140.72;100.00;52642.47;5050277;28;20375;-67
2022/06/28 01:28:51;;;;;;;;;;;;;;;-140.72;100.00;52624.22;5051894;28;19952;-68
2022/06/28 01:31:17;;;;;;;;;;;;;;;-140.72;100.00;52599.88;5046482;28;19926;-68
2022/06/28 01:33:42;;;;;;;;;;;;;;;-140.72;100.00;52636.38;5047616;28;19925;-67
2022/06/28 01:36:09;;;;;;;;;;;;;;;-140.72;100.00;52634.38;5050312;28;19917;-66
2022/06/28 01:38:35;;;;;;;;;;;;;;;-140.72;100.00;52614.06;5049214;28;19984;-67
2022/06/28 01:41:01;;;;;;;;;;;;;;;-140.72;100.00;52599.88;5055521;28;19924;-67
2022/06/28 01:43:27;;;;;;;;;;;;;;;-140.72;100.00;52634.38;5048651;28;19961;-67
2022/06/28 01:45:53;;;;;;;;;;;;;;;-140.72;100.00;52636.38;5047496;28;19929;-68
2022/06/28 01:48:19;;;;;;;;;;;;;;;-140.72;100.00;52624.22;5047650;28;19965;-68
2022/06/28 01:50:45;;;;;;;;;;;;;;;-140.72;100.00;52630.31;5047817;28;19917;-67
2022/06/28 01:53:10;;;;;;;;;;;;;;;-140.72;100.00;52610.00;5051704;28;19921;-67
2022/06/28 01:55:35;;;;;;;;;;;;;;;-140.72;100.00;52668.84;5054443;28;20211;-67
2022/06/28 01:58:01;;;;;;;;;;;;;;;-140.72;100.00;52642.47;5059592;28;19921;-67
2022/06/28 02:00:27;;;;;;;;;;;;;;;-140.72;100.00;52679.00;5050675;28;19921;-67
2022/06/28 02:02:52;;;;;;;;;;;;;;;-140.72;100.00;52670.88;5048774;28;19963;-67
2022/06/28 02:05:17;;;;;;;;;;;;;;;-140.72;100.00;52650.59;5044092;28;19917;-67
2022/06/28 02:07:47;;;;;;;;;;;;;;;-140.72;100.00;52618.13;5049756;28;19917;-67
2022/06/28 02:10:12;;;;;;;;;;;;;;;-140.72;100.00;52628.28;5051646;28;19937;-67
2022/06/28 02:12:37;;;;;;;;;;;;;;;-140.72;100.00;52662.78;5059804;28;19924;-67
2022/06/28 02:15:02;;;;;;;;;;;;;;;-140.72;100.00;52607.97;5050493;28;19976;-68
2022/06/28 02:17:28;;;;;;;;;;;;;;;-140.72;100.00;52656.69;5043665;28;19917;-67
2022/06/28 02:19:54;;;;;;;;;;;;;;;-140.72;100.00;52654.66;5054658;28;19917;-68
2022/06/28 02:22:19;;;;;;;;;;;;;;;-140.72;100.00;52601.91;5049360;28;19940;-68
2022/06/28 02:24:44;;;;;;;;;;;;;;;-140.72;100.00;52597.84;5050479;28;19917;-67
2022/06/28 02:27:09;;;;;;;;;;;;;;;-140.72;100.00;52642.47;5048146;28;20832;-67
2022/06/28 02:29:35;;;;;;;;;;;;;;;-140.72;100.00;52620.16;5053765;28;19991;-67
2022/06/28 02:32:00;;;;;;;;;;;;;;;-140.72;100.00;52640.44;5052563;28;19917;-67
2022/06/28 03:19:24;;;;;;;;;;;;;;;-140.72;100.00;52662.78;5224771;22;19993;-67
2022/06/28 03:21:49;;;;;;;;;;;;;;;-140.72;100.00;52638.41;5010589;28;19921;-68
2022/06/28 03:24:14;;;;;;;;;;;;;;;-140.72;100.00;52640.44;5011917;28;19930;-67
2022/06/28 03:26:40;;;;;;;;;;;;;;;-140.72;100.00;52658.72;5011332;28;19937;-68
2022/06/28 03:29:05;;;;;;;;;;;;;;;-140.72;100.00;52618.13;5015027;28;20271;-67
2022/06/28 03:31:31;;;;;;;;;;;;;;;-140.72;100.00;52670.88;5012547;28;19918;-68
2022/06/28 03:33:56;;;;;;;;;;;;;;;-140.72;100.00;52660.75;5019355;28;19921;-66
2022/06/28 03:36:21;;;;;;;;;;;;;;;-140.72;100.00;52632.34;5018762;28;19918;-68
2022/06/28 03:38:46;;;;;;;;;;;;;;;-140.72;100.00;52630.31;5015596;28;19917;-67
2022/06/28 03:41:22;;;;;;;;;;;;;;;-140.72;100.00;52648.56;5014605;28;19926;-68
2022/06/28 03:43:47;;;;;;;;;;;;;;;-140.72;100.00;52618.13;5019272;28;19960;-67
2022/06/28 03:46:12;;;;;;;;;;;;;;;-140.72;100.00;52646.53;5024505;28;20374;-66
2022/06/28 03:48:37;;;;;;;;;;;;;;;-140.72;100.00;52614.06;5019946;28;20575;-67
2022/06/28 03:51:02;;;;;;;;;;;;;;;-140.72;100.00;52638.41;5021330;28;19928;-68
2022/06/28 03:53:28;;;;;;;;;;;;;;;-140.72;100.00;52638.41;5022964;28;19927;-72
2022/06/28 03:55:53;;;;;;;;;;;;;;;-140.72;100.00;52656.69;5025697;28;19921;-67
2022/06/28 03:58:18;;;;;;;;;;;;;;;-140.72;100.00;52650.59;5028509;28;19960;-68
2022/06/28 04:00:43;;;;;;;;;;;;;;;-140.72;100.00;52632.34;5024801;28;19917;-69
2022/06/28 04:03:09;;;;;;;;;;;;;;;-140.72;100.00;52614.06;5018613;28;20000;-68
2022/06/28 04:05:34;;;;;;;;;;;;;;;-140.72;100.00;52614.06;5015383;28;19993;-67
2022/06/28 04:07:59;;;;;;;;;;;;;;;-140.72;100.00;52650.59;5023372;28;19956;-68
2022/06/28 04:10:24;;;;;;;;;;;;;;;-140.72;100.00;52626.25;5018730;28;19997;-68
2022/06/28 04:12:49;;;;;;;;;;;;;;;-140.72;100.00;52612.03;5013432;28;19985;-69
2022/06/28 04:15:15;;;;;;;;;;;;;;;-140.72;100.00;52650.59;5022683;28;20007;-68
2022/06/28 04:17:41;;;;;;;;;;;;;;;-140.72;100.00;52642.47;5016375;28;19922;-67
2022/06/28 04:20:06;;;;;;;;;;;;;;;-140.72;100.00;52622.19;5019438;28;21160;-69
2022/06/28 04:22:33;;;;;;;;;;;;;;;-140.72;100.00;52628.28;5020179;28;19917;-68
2022/06/28 04:24:58;;;;;;;;;;;;;;;-140.72;100.00;52630.31;5016315;28;20013;-67
2022/06/28 04:27:24;;;;;;;;;;;;;;;-140.72;100.00;52593.78;5014908;28;19917;-68
2022/06/28 04:29:49;;;;;;;;;;;;;;;-140.72;100.00;52618.13;5016779;28;19980;-69
2022/06/28 04:32:14;;;;;;;;;;;;;;;-140.72;100.00;52563.34;5018354;28;19929;-66
2022/06/28 04:34:39;;;;;;;;;;;;;;;-140.72;100.00;52597.84;5025324;28;19988;-67
2022/06/28 04:37:04;;;;;;;;;;;;;;;-140.72;100.00;52626.25;5028180;28;19997;-66
2022/06/28 04:39:30;;;;;;;;;;;;;;;-140.72;100.00;52626.25;5021784;28;19918;-70
2022/06/28 04:41:55;;;;;;;;;;;;;;;-140.72;100.00;52605.94;5016081;28;19942;-68
2022/06/28 04:44:20;;;;;;;;;;;;;;;-140.72;100.00;52622.19;5018236;28;19948;-71
2022/06/28 04:46:45;;;;;;;;;;;;;;;-140.72;100.00;52630.31;5022903;28;19921;-66
2022/06/28 04:49:11;;;;;;;;;;;;;;;-140.72;100.00;52593.78;5017992;28;19922;-68
2022/06/28 04:51:38;;;;;;;;;;;;;;;-140.72;100.00;52607.97;5012262;28;19922;-70
2022/06/28 04:54:11;;;;;;;;;;;;;;;-140.72;100.00;52630.31;5012632;28;19924;-68
2022/06/28 04:56:37;;;;;;;;;;;;;;;-140.72;100.00;52597.84;5025232;28;19922;-69
2022/06/28 04:59:02;;;;;;;;;;;;;;;-140.72;100.00;52616.09;5020565;28;19948;-71
2022/06/28 05:01:27;;;;;;;;;;;;;;;-140.72;100.00;52605.94;5015547;28;19967;-66
2022/06/28 05:03:52;;;;;;;;;;;;;;;-140.72;100.00;52630.31;5022503;28;20406;-67
2022/06/28 05:06:18;;;;;;;;;;;;;;;-140.72;100.00;52638.41;5020341;28;19925;-68
2022/06/28 05:08:43;;;;;;;;;;;;;;;-140.72;100.00;52616.09;5011547;28;19921;-68
2022/06/28 05:11:08;;;;;;;;;;;;;;;-140.72;100.00;52605.94;5013725;28;19918;-69
2022/06/28 05:13:34;;;;;;;;;;;;;;;-140.72;100.00;52601.91;5016258;28;19928;-69
2022/06/28 05:15:59;;;;;;;;;;;;;;;-140.72;100.00;52622.19;5030967;28;19918;-70
2022/06/28 05:18:24;;;;;;;;;;;;;;;-140.72;100.00;52569.44;5022099;28;19928;-70
2022/06/28 05:20:49;;;;;;;;;;;;;;;-140.72;100.00;52616.09;5017349;28;19922;-69
2022/06/28 05:23:15;;;;;;;;;;;;;;;-140.72;100.00;52610.00;5020056;28;19918;-68
2022/06/28 05:25:40;;;;;;;;;;;;;;;-140.72;100.00;52618.13;5020882;28;19989;-68
2022/06/28 05:28:05;;;;;;;;;;;;;;;-140.72;100.00;52599.88;5013601;28;19929;-68
2022/06/28 05:30:30;;;;;;;;;;;;;;;-140.72;100.00;52614.06;5017713;28;19918;-69
2022/06/28 05:32:56;;;;;;;;;;;;;;;-140.72;100.00;52618.13;5013437;28;19928;-69
2022/06/28 05:35:21;;;;;;;;;;;;;;;-140.72;100.00;52595.81;5016043;28;19980;-67
2022/06/28 05:37:46;;;;;;;;;;;;;;;-140.72;100.00;52646.53;5016958;28;20020;-69
2022/06/28 05:40:11;;;;;;;;;;;;;;;-140.72;100.00;52597.84;5019293;28;19918;-69
2022/06/28 05:42:37;;;;;;;;;;;;;;;-140.72;100.00;52599.88;5021549;28;19926;-69
2022/06/28 05:45:02;;;;;;;;;;;;;;;-140.72;100.00;52614.06;5023648;28;19917;-68
2022/06/28 05:47:27;;;;;;;;;;;;;;;-140.72;100.00;52607.97;5024949;28;19944;-69
2022/06/28 05:49:53;;;;;;;;;;;;;;;-140.72;100.00;52553.19;5027272;28;19917;-70
2022/06/28 05:52:18;;;;;;;;;;;;;;;-140.72;100.00;52565.38;5026193;28;19918;-72
2022/06/28 05:54:43;;;;;;;;;;;;;;;-140.72;100.00;52593.78;5021392;28;19917;-68
2022/06/28 05:57:08;;;;;;;;;;;;;;;-140.72;100.00;52573.50;5022238;28;19913;-67
2022/06/28 05:59:34;;;;;;;;;;;;;;;-140.72;100.00;52607.97;5036244;28;19928;-67
2022/06/28 06:01:59;;;;;;;;;;;;;;;-140.72;100.00;52601.91;5031341;28;19918;-72
2022/06/28 06:04:27;;;;;;;;;;;;;;;-140.72;100.00;52587.69;5026463;28;19917;-69
2022/06/28 06:06:53;;;;;;;;;;;;;;;-140.72;100.00;52593.78;5022682;28;19918;-69
2022/06/28 06:09:18;;;;;;;;;;;;;;;-140.72;100.00;52557.25;5027166;28;19918;-69
2022/06/28 06:11:44;;;;;;;;;;;;;;;-140.72;100.00;52536.97;5029088;28;19917;-68
2022/06/28 06:14:09;;;;;;;;;;;;;;;-140.72;100.00;52539.00;5027511;28;19924;-68
2022/06/28 06:16:35;;;;;;;;;;;;;;;-140.72;100.00;52616.09;5029581;28;19980;-68
2022/06/28 06:19:00;;;;;;;;;;;;;;;-140.72;100.00;52607.97;5028808;28;20377;-69
2022/06/28 06:21:25;;;;;;;;;;;;;;;-140.72;100.00;52575.50;5023609;28;20352;-68
2022/06/28 06:23:50;;;;;;;;;;;;;;;-140.72;100.00;52543.03;5024264;28;19918;-68
2022/06/28 06:26:15;;;;;;;;;;;;;;;-140.72;100.00;52622.19;5028397;28;19922;-68
2022/06/28 06:28:41;;;;;;;;;;;;;;;-140.72;100.00;52563.34;5028264;28;19918;-68
2022/06/28 06:31:08;;;;;;;;;;;;;;;-140.72;100.00;52553.19;5030252;28;19921;-67
2022/06/28 06:33:33;;;;;;;;;;;;;;;-140.72;100.00;52549.13;5041077;28;19917;-67
2022/06/28 06:35:58;;;;;;;;;;;;;;;-140.72;100.00;52561.31;5023258;28;19997;-67
2022/06/28 06:38:24;;;;;;;;;;;;;;;-140.72;100.00;52573.50;5037705;28;19928;-68
2022/06/28 06:40:49;;;;;;;;;;;;;;;-140.72;100.00;52549.13;5030534;28;19917;-68
2022/06/28 06:43:15;;;;;;;;;;;;;;;-140.72;100.00;52508.56;5025769;28;19937;-68
2022/06/28 06:45:40;;;;;;;;;;;;;;;-140.72;100.00;52545.06;5020426;28;19918;-67
2022/06/28 06:48:05;;;;;;;;;;;;;;;-140.72;100.00;52549.13;5016779;28;19924;-68
2022/06/28 06:50:30;;;;;;;;;;;;;;;-140.72;100.00;52508.56;5030071;28;19977;-68
2022/06/28 06:52:56;;;;;;;;;;;;;;;-140.72;100.00;52557.25;5015675;28;20096;-68
2022/06/28 06:55:21;;;;;;;;;;;;;;;-140.72;100.00;52516.66;5019176;28;19973;-67
2022/06/28 06:57:46;;;;;;;;;;;;;;;-140.72;100.00;52559.28;5026985;28;19965;-68
2022/06/28 07:00:11;;;;;;;;;;;;;;;-140.72;100.00;52541.03;5029963;28;19939;-68
2022/06/28 07:02:40;;;;;;;;;;;;;;;-140.72;100.00;52530.88;5030574;28;19956;-67
2022/06/28 07:05:06;;;;;;;;;;;;;;;-140.72;100.00;52526.81;5023190;28;19918;-68
2022/06/28 07:07:31;;;;;;;;;;;;;;;-140.72;100.00;52516.66;5023060;28;19918;-68
2022/06/28 07:09:56;;;;;;;;;;;;;;;-140.72;100.00;52467.97;5029368;28;19988;-68
2022/06/28 07:12:22;;;;;;;;;;;;;;;-140.72;100.00;52547.09;5028098;28;19918;-69
2022/06/28 07:14:47;;;;;;;;;;;;;;;-140.72;100.00;52500.44;5023729;28;20013;-68
2022/06/28 07:17:12;;;;;;;;;;;;;;;-140.72;100.00;52508.56;5023043;28;20005;-69
2022/06/28 07:19:38;;;;;;;;;;;;;;;-140.72;100.00;52524.78;5028569;28;20035;-68
2022/06/28 07:22:03;;;;;;;;;;;;;;;-140.72;100.00;52510.59;5029506;28;19917;-69
2022/06/28 07:24:28;;;;;;;;;;;;;;;-140.72;100.00;52512.59;5041304;28;19953;-68
2022/06/28 07:26:54;;;;;;;;;;;;;;;-140.72;100.00;52494.34;5023432;28;19917;-68
2022/06/28 07:29:19;;;;;;;;;;;;;;;-140.72;100.00;52496.38;5027722;28;19917;-68
2022/06/28 07:31:44;;;;;;;;;;;;;;;-140.72;100.00;52508.56;5027492;28;19917;-68
2022/06/28 07:34:10;;;;;;;;;;;;;;;-140.72;100.00;52516.66;5028391;28;19917;-68
2022/06/28 07:36:35;;;;;;;;;;;;;;;-140.72;100.00;52530.88;5028071;28;19917;-68
2022/06/28 07:39:00;;;;;;;;;;;;;;;-140.72;100.00;52488.25;5016753;28;19917;-69
2022/06/28 07:41:25;;;;;;;;;;;;;;;-140.72;100.00;52502.47;5026688;28;19921;-69
2022/06/28 07:43:51;;;;;;;;;;;;;;;-140.72;100.00;52490.28;5015537;28;19929;-68
2022/06/28 07:46:20;;;;;;;;;;;;;;;-140.72;100.00;52510.59;5020279;28;20395;-68
2022/06/28 07:48:45;;;;;;;;;;;;;;;-140.72;100.00;52459.84;5012211;28;19925;-68
2022/06/28 07:53:54;;;;;;;;;;;;;;;-140.72;100.00;52510.59;5022322;28;19948;-68
2022/06/28 07:56:20;;;;;;;;;;;;;;;-140.72;100.00;52463.91;5020257;28;19918;-69
2022/06/28 07:58:45;;;;;;;;;;;;;;;-140.72;100.00;52465.94;5025390;28;19926;-68
2022/06/28 08:01:10;;;;;;;;;;;;;;;-140.72;100.00;52486.22;5022213;28;19973;-68
2022/06/28 08:03:35;;;;;;;;;;;;;;;-140.72;100.00;52437.53;5029091;28;19928;-68
2022/06/28 08:06:01;;;;;;;;;;;;;;;-140.72;100.00;52447.69;5027236;28;19929;-69
2022/06/28 08:08:26;;;;;;;;;;;;;;;-140.72;100.00;52417.25;5008732;28;19933;-67
2022/06/28 08:10:51;;;;;;;;;;;;;;;-140.72;100.00;52409.13;5021621;28;19917;-68
2022/06/28 08:13:16;;;;;;;;;;;;;;;-140.72;100.00;52398.97;5027883;28;19924;-68
2022/06/28 08:15:42;;;;;;;;;;;;;;;-140.72;100.00;52362.44;5028323;28;19944;-67
2022/06/28 08:18:07;;;;;;;;;;;;;;;-140.72;100.00;52386.81;5010180;28;19926;-67
2022/06/28 08:20:33;;;;;;;;;;;;;;;-140.72;100.00;52409.13;5013766;28;19922;-67
2022/06/28 08:22:58;;;;;;;;;;;;;;;-140.72;100.00;52405.06;5014512;28;19961;-67
2022/06/28 08:25:23;;;;;;;;;;;;;;;-140.72;100.00;52382.75;5027074;28;19944;-67
2022/06/28 08:27:48;;;;;;;;;;;;;;;-140.72;100.00;52382.75;5013416;28;19952;-67
2022/06/28 08:30:14;;;;;;;;;;;;;;;-140.72;100.00;52382.75;5026501;28;19937;-68
2022/06/28 08:32:39;;;;;;;;;;;;;;;-140.72;100.00;52342.16;5020391;28;19964;-67
2022/06/28 08:35:05;;;;;;;;;;;;;;;-140.72;100.00;52403.03;5009078;28;19918;-68
2022/06/28 08:37:30;;;;;;;;;;;;;;;-140.72;100.00;52354.34;5016297;28;20049;-67
2022/06/28 08:39:55;;;;;;;;;;;;;;;-140.72;100.00;52364.47;5014817;28;19918;-69
2022/06/28 08:42:24;;;;;;;;;;;;;;;-140.72;100.00;52439.56;5028756;28;19928;-68
2022/06/28 08:44:50;;;;;;;;;;;;;;;-140.72;100.00;52425.34;5015717;28;19918;-69
2022/06/28 08:47:18;;;;;;;;;;;;;;;-140.72;100.00;52386.81;5015464;28;20072;-68
2022/06/28 08:49:46;;;;;;;;;;;;;;;-140.72;100.00;52362.44;5031766;28;19932;-69
2022/06/28 08:52:13;;;;;;;;;;;;;;;-140.72;100.00;52352.31;5028613;28;19926;-69
2022/06/28 08:54:38;;;;;;;;;;;;;;;-140.72;100.00;52350.28;5013729;28;20064;-68
2022/06/28 08:57:07;;;;;;;;;;;;;;;-140.72;100.00;52348.25;5018453;28;19950;-67
2022/06/28 08:59:33;;;;;;;;;;;;;;;-140.72;100.00;52451.72;5017543;28;19957;-68
2022/06/28 09:01:59;;;;;;;;;;;;;;;-140.72;100.00;52419.28;5020388;28;19944;-67
2022/06/28 09:04:27;;;;;;;;;;;;;;;-140.72;100.00;52368.53;5032081;28;20286;-67
2022/06/28 09:06:52;;;;;;;;;;;;;;;-140.72;100.00;52358.41;5032855;28;19918;-67
2022/06/28 09:09:17;;;;;;;;;;;;;;;-140.72;100.00;52315.78;5032093;28;20388;-68
2022/06/28 09:11:43;;;;;;;;;;;;;;;-140.72;100.00;52358.41;5027239;28;19918;-68
2022/06/28 09:14:21;;;;;;;;;;;;;;;-140.72;100.00;52293.47;5026585;28;20033;-68
2022/06/28 09:16:47;;;;;;;;;;;;;;;-140.72;100.00;52301.59;5032314;28;19981;-68
2022/06/28 09:19:12;;;;;;;;;;;;;;;-140.72;100.00;52273.19;5014761;28;19922;-68
2022/06/28 09:21:41;;;;;;;;;;;;;;;-140.72;100.00;52386.81;5011509;28;19921;-68
2022/06/28 09:24:07;;;;;;;;;;;;;;;-140.72;100.00;52313.75;5028149;28;20295;-67
2022/06/28 09:26:32;;;;;;;;;;;;;;;-140.72;100.00;52271.16;5030267;28;20339;-67
2022/06/28 09:28:57;;;;;;;;;;;;;;;-140.72;100.00;52263.03;5030563;28;19925;-68
2022/06/28 09:31:25;;;;;;;;;;;;;;;-140.72;100.00;52250.84;5031162;28;20004;-67
2022/06/28 09:34:00;;;;;;;;;;;;;;;-140.72;100.00;52265.06;5018527;28;19917;-67
2022/06/28 09:36:25;;;;;;;;;;;;;;;-140.72;100.00;52230.56;5019212;28;19965;-67
2022/06/28 09:38:51;;;;;;;;;;;;;;;-140.72;100.00;52220.41;5030979;28;19921;-67
2022/06/28 09:41:25;;;;;;;;;;;;;;;-140.72;100.00;52228.53;5031828;28;19921;-68
2022/06/28 09:43:57;;;;;;;;;;;;;;;-140.72;100.00;52224.47;5031173;28;19918;-68
2022/06/28 09:46:26;;;;;;;;;;;;;;;-140.72;100.00;52220.41;5022544;28;20409;-68
2022/06/28 09:48:52;;;;;;;;;;;;;;;-140.72;100.00;52141.28;5021386;28;19952;-67
2022/06/28 09:51:23;;;;;;;;;;;;;;;-140.72;100.00;52153.47;5024487;28;19931;-67
2022/06/28 09:53:52;;;;;;;;;;;;;;;-140.72;100.00;52157.53;5030910;28;19917;-68
2022/06/28 09:56:21;;;;;;;;;;;;;;;-140.72;100.00;52131.16;5029803;28;19945;-67
2022/06/28 09:58:46;;;;;;;;;;;;;;;-140.72;100.00;52078.38;5013163;28;19953;-68
2022/06/28 10:01:14;;;;;;;;;;;;;;;-140.72;100.00;52114.91;5029742;28;19933;-68
2022/06/28 10:03:39;;;;;;;;;;;;;;;-140.72;100.00;52114.91;5030203;28;19976;-68
2022/06/28 10:06:04;;;;;;;;;;;;;;;-140.72;100.00;52110.84;5027797;28;19948;-68
2022/06/28 10:08:29;;;;;;;;;;;;;;;-140.72;100.00;52106.78;5030075;28;19917;-68
2022/06/28 10:10:55;;;;;;;;;;;;;;;-140.72;100.00;52127.09;5029965;28;19917;-68
2022/06/28 10:16:11;;;;;;;;;;;;;;;-140.72;100.00;52070.28;5024968;28;19929;-68
2022/06/28 10:18:38;;;;;;;;;;;;;;;-140.72;100.00;52021.56;5024234;28;19936;-68
2022/06/28 10:21:03;;;;;;;;;;;;;;;-140.72;100.00;52060.13;5026417;28;20021;-68
2022/06/28 10:23:37;;;;;;;;;;;;;;;-140.72;100.00;52054.03;5029449;28;19989;-68
2022/06/28 10:26:08;;;;;;;;;;;;;;;-140.72;100.00;52025.63;5031258;28;19927;-68
2022/06/28 10:28:35;;;;;;;;;;;;;;;-140.72;100.00;52001.28;5028553;28;19928;-69
2022/06/28 10:31:19;;;;;;;;;;;;;;;-140.72;100.00;52039.84;5020058;28;19917;-68
2022/06/28 10:33:44;;;;;;;;;;;;;;;-140.72;100.00;52029.69;5027522;28;20016;-68
2022/06/28 10:36:13;;;;;;;;;;;;;;;-140.72;100.00;51993.19;5031306;28;19925;-68
2022/06/28 10:38:58;;;;;;;;;;;;;;;-140.72;100.00;52025.63;5026806;28;19921;-67
2022/06/28 10:41:34;;;;;;;;;;;;;;;-140.72;100.00;52019.56;5019251;28;19962;-68
2022/06/28 10:44:14;;;;;;;;;;;;;;;-140.72;100.00;51995.19;5020066;28;19918;-69
2022/06/28 10:46:39;;;;;;;;;;;;;;;-140.72;100.00;51964.78;5017899;28;19973;-68
2022/06/28 10:49:06;;;;;;;;;;;;;;;-140.72;100.00;51932.31;5015451;28;19917;-68
2022/06/28 10:51:32;;;;;;;;;;;;;;;-140.72;100.00;52005.34;5031518;28;19917;-68
2022/06/28 10:53:57;;;;;;;;;;;;;;;-140.72;100.00;51978.97;5029463;28;19936;-67
2022/06/28 10:56:23;;;;;;;;;;;;;;;-140.72;100.00;51997.22;5030803;28;19980;-68
2022/06/28 10:58:58;;;;;;;;;;;;;;;-140.72;100.00;51987.09;5012221;28;19917;-68
2022/06/28 11:01:39;;;;;;;;;;;;;;;-140.72;100.00;51987.09;5010963;28;19929;-68
2022/06/28 11:04:12;;;;;;;;;;;;;;;-140.72;100.00;51948.53;5011923;28;19929;-68
2022/06/28 11:06:41;;;;;;;;;;;;;;;-140.72;100.00;51928.25;5028751;28;19918;-67
2022/06/28 11:09:13;;;;;;;;;;;;;;;-140.72;100.00;51932.31;5028997;28;20001;-68
2022/06/28 11:11:57;;;;;;;;;;;;;;;-140.72;100.00;51948.53;5018107;28;19922;-68
2022/06/28 11:14:29;;;;;;;;;;;;;;;-140.72;100.00;51974.91;5027319;28;19918;-68
2022/06/28 11:16:56;;;;;;;;;;;;;;;-140.72;100.00;52001.28;5022042;28;19921;-68
2022/06/28 11:19:22;;;;;;;;;;;;;;;-140.72;100.00;51987.09;5033992;28;19925;-68
2022/06/28 11:21:48;;;;;;;;;;;;;;;-140.72;100.00;51881.59;5026780;28;20025;-68
2022/06/28 11:24:14;;;;;;;;;;;;;;;-140.72;100.00;51956.66;5028467;28;19918;-68
2022/06/28 11:29:23;;;;;;;;;;;;;;;-140.72;100.00;51930.28;5019193;28;19928;-69
2022/06/28 11:31:48;;;;;;;;;;;;;;;-140.72;100.00;51956.66;5030794;28;19949;-68
2022/06/28 11:34:21;;;;;;;;;;;;;;;-140.72;100.00;51887.66;5029878;28;19945;-68
2022/06/28 11:36:47;;;;;;;;;;;;;;;-140.72;100.00;51834.91;5026978;28;19932;-67
2022/06/28 11:39:16;;;;;;;;;;;;;;;-140.72;100.00;51845.06;5034799;28;19933;-68
2022/06/28 11:41:46;;;;;;;;;;;;;;;-140.72;100.00;51845.06;5026203;28;19918;-67
2022/06/28 11:44:11;;;;;;;;;;;;;;;-140.72;100.00;51847.09;5019809;28;19921;-68
2022/06/28 11:46:37;;;;;;;;;;;;;;;-140.72;100.00;51889.69;5019367;28;19989;-67
2022/06/28 11:49:02;;;;;;;;;;;;;;;-140.72;100.00;51881.59;5027662;28;19932;-67
2022/06/28 11:51:29;;;;;;;;;;;;;;;-140.72;100.00;51889.69;5020805;28;19945;-67
2022/06/28 11:53:55;;;;;;;;;;;;;;;-140.72;100.00;51857.25;5031320;28;19972;-67
2022/06/28 11:56:20;;;;;;;;;;;;;;;-140.72;100.00;51883.63;5033419;28;19980;-67
2022/06/28 11:58:45;;;;;;;;;;;;;;;-140.72;100.00;51820.72;5029065;28;19918;-68
2022/06/28 12:01:11;;;;;;;;;;;;;;;-140.72;100.00;51863.31;5030380;28;19944;-68
2022/06/28 12:03:42;;;;;;;;;;;;;;;-140.72;100.00;51838.97;5021607;28;19932;-67
2022/06/28 12:06:09;;;;;;;;;;;;;;;-140.72;100.00;51818.69;5009976;28;19928;-67
2022/06/28 12:08:55;;;;;;;;;;;;;;;-140.72;100.00;51812.59;5018093;28;19980;-67
2022/06/28 12:11:27;;;;;;;;;;;;;;;-140.72;100.00;51871.44;5011124;28;19929;-67
2022/06/28 12:13:55;;;;;;;;;;;;;;;-140.72;100.00;51891.72;5007717;28;19910;-66
2022/06/28 12:16:20;;;;;;;;;;;;;;;-140.72;100.00;51899.84;5026869;28;19961;-67
2022/06/28 12:18:52;;;;;;;;;;;;;;;-140.72;100.00;51838.97;5028667;28;19921;-67
2022/06/28 12:21:17;;;;;;;;;;;;;;;-140.72;100.00;51893.75;5009540;28;19918;-67
2022/06/28 12:23:46;;;;;;;;;;;;;;;-140.72;100.00;51851.16;5022008;28;19937;-68
2022/06/28 12:26:12;;;;;;;;;;;;;;;-140.72;100.00;51838.97;5015066;28;20370;-67
2022/06/28 12:28:37;;;;;;;;;;;;;;;-140.72;100.00;51845.06;5027211;28;19922;-68
2022/06/28 12:31:02;;;;;;;;;;;;;;;-140.72;100.00;51830.88;5009297;28;19981;-67
2022/06/28 12:33:27;;;;;;;;;;;;;;;-140.72;100.00;51806.53;5023137;28;19918;-68
2022/06/28 12:35:53;;;;;;;;;;;;;;;-140.72;100.00;51830.88;5020312;28;19917;-68
2022/06/28 12:38:18;;;;;;;;;;;;;;;-140.72;100.00;51788.25;5022380;28;19928;-68
2022/06/28 12:40:43;;;;;;;;;;;;;;;-140.72;100.00;51849.13;5027085;28;19921;-68
2022/06/28 12:43:08;;;;;;;;;;;;;;;-140.72;100.00;51897.81;5028256;28;19989;-68
2022/06/28 12:45:33;;;;;;;;;;;;;;;-140.72;100.00;51871.44;5025643;28;20403;-67
2022/06/28 12:47:59;;;;;;;;;;;;;;;-140.72;100.00;51845.06;5017291;28;19917;-67
2022/06/28 12:50:24;;;;;;;;;;;;;;;-140.72;100.00;51822.75;5027047;28;19917;-67
2022/06/28 12:52:49;;;;;;;;;;;;;;;-140.72;100.00;51899.84;5028169;28;19929;-66
2022/06/28 12:55:14;;;;;;;;;;;;;;;-140.72;100.00;51863.31;5028240;28;19937;-68
2022/06/28 12:57:40;;;;;;;;;;;;;;;-140.72;100.00;51863.31;5026357;28;19921;-68
2022/06/28 13:00:06;;;;;;;;;;;;;;;-140.72;100.00;51838.97;5013932;28;19961;-68
2022/06/28 13:02:32;;;;;;;;;;;;;;;-140.72;100.00;51836.94;5027622;28;19917;-67
2022/06/28 13:04:57;;;;;;;;;;;;;;;-140.72;100.00;51847.09;5027116;28;19921;-68
2022/06/28 13:07:22;;;;;;;;;;;;;;;-140.72;100.00;51897.81;5015197;28;19965;-67